Honcut, California
Current Conditions -  °F | °C
As of 2:53 AM on Wednesday 26 Nov 2014 (Local Time) from KOVE Reporting Station
Clear Clear  
Wind Chill: 45°   Ceiling: Unl
Heat Index: 45°   Visibility: 9mi
Dew Point: 42°   Wind: 0mph
Humidity: 90%   Direction: NA
Pressure: 30.36"   Gusts: NA
Location:  39.5324°N, 121.648°W
Report Text: KOVE 261053Z AUTO 00000KT 9SM CLR 07/06 A3036 RMK AO2 SLP281 T00720056
Loading
Personal Weather Stations






























Interactive Weather Map New forecast layout! Learn more

10-Day Weather Forecast

Advertisements
Track Severe Weather on mobile